createdAt,value
2019-02-05T00:00:51.471Z,12.27
2019-02-05T00:03:21.629Z,11.63
2019-02-05T00:05:49.287Z,11.23
2019-02-05T00:08:16.625Z,10.77
2019-02-05T00:10:43.952Z,11.03
2019-02-05T00:13:11.488Z,10.23
2019-02-05T00:15:39.201Z,11.17
2019-02-05T00:18:06.556Z,10.90
2019-02-05T00:20:33.885Z,9.53
2019-02-05T00:23:03.563Z,9.50
2019-02-05T00:25:30.809Z,9.40
2019-02-05T00:27:58.169Z,10.00
2019-02-05T00:30:25.900Z,9.33
2019-02-05T00:32:53.245Z,10.73
2019-02-05T00:35:20.578Z,10.53
2019-02-05T00:37:47.836Z,10.30
2019-02-05T00:40:15.387Z,10.17
2019-02-05T00:42:42.731Z,10.87
2019-02-05T00:45:11.455Z,11.03
2019-02-05T00:47:39.116Z,10.93
2019-02-05T00:50:08.007Z,12.00
2019-02-05T00:52:35.272Z,12.10
2019-02-05T00:55:03.840Z,12.17
2019-02-05T00:57:31.212Z,12.70
2019-02-05T00:59:58.444Z,12.33
2019-02-05T01:02:25.694Z,12.30
2019-02-05T01:04:53.318Z,11.07
2019-02-05T01:07:20.676Z,12.43
2019-02-05T01:09:47.984Z,13.03
2019-02-05T01:12:15.324Z,13.00
2019-02-05T01:14:42.555Z,14.20
2019-02-05T01:17:09.819Z,13.77
2019-02-05T01:19:37.043Z,13.43
2019-02-05T01:22:04.684Z,13.70
2019-02-05T01:24:31.902Z,12.57
2019-02-05T01:26:59.164Z,13.47
2019-02-05T01:29:26.476Z,13.13
2019-02-05T01:31:53.788Z,13.23
2019-02-05T01:34:21.007Z,13.20
2019-02-05T01:36:48.323Z,12.93
2019-02-05T01:39:15.761Z,12.80
2019-02-05T01:41:43.076Z,10.33
2019-02-05T01:44:10.401Z,9.77
2019-02-05T01:46:37.624Z,10.57
2019-02-05T01:49:05.170Z,10.30
2019-02-05T01:51:32.487Z,10.73
2019-02-05T01:53:59.707Z,10.90
2019-02-05T01:56:27.423Z,10.80
2019-02-05T01:58:55.011Z,11.83
2019-02-05T02:01:22.235Z,11.63
2019-02-05T02:03:49.472Z,10.27
2019-02-05T02:06:16.793Z,10.70
2019-02-05T02:08:44.200Z,10.60
2019-02-05T02:11:11.524Z,11.20
2019-02-05T02:13:39.016Z,10.67
2019-02-05T02:16:06.585Z,11.33
2019-02-05T02:18:33.807Z,11.03
2019-02-05T02:21:01.135Z,11.73
2019-02-05T02:23:28.363Z,11.57
2019-02-05T02:25:56.310Z,11.43
2019-02-05T02:28:23.561Z,11.50
2019-02-05T02:30:50.871Z,11.80
2019-02-05T02:33:18.399Z,11.60
2019-02-05T02:35:46.019Z,11.50
2019-02-05T02:38:13.275Z,11.43
2019-02-05T02:40:40.496Z,12.43
2019-02-05T02:43:07.835Z,11.73
2019-02-05T02:45:35.052Z,11.37
2019-02-05T02:48:02.316Z,12.93
2019-02-05T02:50:30.344Z,11.90
2019-02-05T02:52:58.527Z,11.43
2019-02-05T02:55:25.751Z,11.33
2019-02-05T02:57:53.068Z,11.23
2019-02-05T03:00:20.427Z,10.83
2019-02-05T03:02:48.008Z,11.23
2019-02-05T03:05:18.152Z,11.83
2019-02-05T03:07:45.780Z,11.90
2019-02-05T03:10:18.381Z,11.63
2019-02-05T03:12:45.793Z,10.87
2019-02-05T03:15:13.439Z,11.43
2019-02-05T03:17:40.902Z,11.43
2019-02-05T03:20:08.797Z,10.73
2019-02-05T03:22:36.167Z,11.87
2019-02-05T03:25:05.035Z,11.80
2019-02-05T03:27:32.588Z,12.47
2019-02-05T03:29:59.808Z,10.67
2019-02-05T03:32:27.459Z,11.60
2019-02-05T03:34:54.784Z,11.47
2019-02-05T03:37:22.421Z,11.63
2019-02-05T03:39:50.065Z,11.37
2019-02-05T03:42:17.399Z,10.73
2019-02-05T03:44:45.301Z,11.53
2019-02-05T03:47:13.036Z,11.40
2019-02-05T03:49:40.565Z,11.10
2019-02-05T03:52:20.225Z,11.93
2019-02-05T03:55:16.464Z,11.53
2019-02-05T03:58:13.771Z,11.50
2019-02-05T04:00:52.578Z,10.93
2019-02-05T04:04:09.940Z,11.60
2019-02-05T04:07:02.020Z,11.77
2019-02-05T04:10:23.081Z,11.37
2019-02-05T04:13:34.251Z,11.30
2019-02-05T04:16:42.771Z,11.63
2019-02-05T04:20:00.534Z,12.00
2019-02-05T04:23:13.503Z,12.10
2019-02-05T04:26:17.707Z,12.97
2019-02-05T04:29:15.259Z,12.40
2019-02-05T04:32:12.971Z,12.93
2019-02-05T04:35:21.727Z,12.03
2019-02-05T04:38:32.800Z,11.93
2019-02-05T04:41:45.217Z,11.83
2019-02-05T04:44:42.263Z,11.73
2019-02-05T04:47:32.689Z,12.07
2019-02-05T04:50:18.366Z,11.93
2019-02-05T04:53:18.980Z,12.73
2019-02-05T04:56:46.187Z,12.80
2019-02-05T04:59:50.560Z,13.03
2019-02-05T05:02:55.747Z,13.15
2019-02-05T05:05:59.306Z,13.50
2019-02-05T05:09:03.899Z,14.17
2019-02-05T05:11:31.219Z,13.47
2019-02-05T05:13:58.475Z,13.80
2019-02-05T05:16:26.203Z,13.23
2019-02-05T05:18:53.613Z,13.97
2019-02-05T05:21:21.031Z,14.23
2019-02-05T05:23:48.905Z,13.20
2019-02-05T05:26:16.975Z,13.90
2019-02-05T05:28:44.323Z,13.07
2019-02-05T05:31:11.755Z,13.07
2019-02-05T05:33:39.110Z,13.30
2019-02-05T05:36:06.448Z,14.03
2019-02-05T05:38:33.723Z,14.37
2019-02-05T05:41:01.057Z,14.43
2019-02-05T05:43:28.389Z,13.77
2019-02-05T05:45:55.929Z,13.90
2019-02-05T05:48:23.260Z,14.50
2019-02-05T05:50:50.601Z,15.17
2019-02-05T05:53:18.289Z,13.53
2019-02-05T05:55:45.624Z,13.87
2019-02-05T05:58:22.224Z,14.20
2019-02-05T06:00:42.185Z,14.20
2019-02-05T06:03:09.949Z,14.13
2019-02-05T06:05:37.311Z,14.77
2019-02-05T06:08:04.626Z,14.47
2019-02-05T06:10:31.988Z,14.90
2019-02-05T06:12:59.324Z,14.93
2019-02-05T06:15:27.028Z,16.70
2019-02-05T06:17:54.685Z,18.20
2019-02-05T06:20:22.916Z,17.43
2019-02-05T06:22:51.021Z,16.57
2019-02-05T06:25:18.387Z,16.30
2019-02-05T06:27:45.709Z,15.63
2019-02-05T06:30:14.383Z,15.47
2019-02-05T06:32:41.615Z,15.53
2019-02-05T06:35:09.390Z,15.13
2019-02-05T06:37:36.707Z,15.20
2019-02-05T06:40:05.033Z,16.33
2019-02-05T06:42:32.355Z,16.07
2019-02-05T06:44:59.611Z,16.30
2019-02-05T06:47:26.839Z,15.03
2019-02-05T06:49:54.771Z,16.07
2019-02-05T06:52:22.100Z,16.53
2019-02-05T06:54:49.463Z,16.73
2019-02-05T06:57:17.143Z,16.00
2019-02-05T06:59:44.817Z,14.90
2019-02-05T07:02:12.249Z,16.47
2019-02-05T07:04:39.620Z,17.03
2019-02-05T07:07:06.947Z,16.67
2019-02-05T07:09:34.313Z,15.97
2019-02-05T07:12:01.681Z,16.97
2019-02-05T07:14:29.036Z,19.90
2019-02-05T07:16:56.369Z,24.67
2019-02-05T07:19:24.000Z,23.77
2019-02-05T07:21:51.607Z,25.37
2019-02-05T07:24:18.945Z,26.83
2019-02-05T07:26:46.287Z,26.63
2019-02-05T07:29:13.615Z,25.37
2019-02-05T07:31:40.955Z,26.00
2019-02-05T07:34:08.684Z,23.17
2019-02-05T07:36:36.011Z,24.33
2019-02-05T07:39:07.128Z,24.13
2019-02-05T07:41:34.470Z,22.80
2019-02-05T07:44:01.886Z,19.10
2019-02-05T07:46:29.208Z,17.73
2019-02-05T07:48:56.627Z,16.53
2019-02-05T07:51:24.276Z,17.43
2019-02-05T07:53:51.616Z,23.43
2019-02-05T07:56:18.957Z,18.83
2019-02-05T07:58:46.304Z,17.90
2019-02-05T08:01:14.016Z,18.93
2019-02-05T08:03:41.343Z,18.40
2019-02-05T08:06:08.675Z,20.83
2019-02-05T08:08:35.932Z,19.27
2019-02-05T08:11:04.969Z,19.47
2019-02-05T08:13:32.306Z,18.83
2019-02-05T08:15:59.631Z,24.30
2019-02-05T08:18:26.955Z,29.10
2019-02-05T08:20:54.284Z,25.13
2019-02-05T08:23:21.900Z,24.13
2019-02-05T08:25:49.228Z,22.93
2019-02-05T08:28:16.556Z,20.97
2019-02-05T08:30:45.775Z,19.57
2019-02-05T08:33:32.855Z,20.93
2019-02-05T08:36:00.186Z,22.50
2019-02-05T08:38:27.653Z,22.77
2019-02-05T08:40:54.919Z,21.13
2019-02-05T08:43:22.648Z,18.73
2019-02-05T08:45:56.712Z,19.87
2019-02-05T08:48:19.125Z,19.13
2019-02-05T08:50:46.478Z,19.47
2019-02-05T08:53:13.813Z,17.30
2019-02-05T08:55:41.586Z,17.73
2019-02-05T08:58:10.324Z,16.90
2019-02-05T09:00:38.181Z,17.10
2019-02-05T09:03:07.220Z,17.27
2019-02-05T09:05:34.552Z,17.13
2019-02-05T09:08:02.239Z,19.43
2019-02-05T09:10:31.456Z,17.87
2019-02-05T09:12:59.100Z,18.33
2019-02-05T09:15:29.549Z,17.83
2019-02-05T09:17:56.356Z,17.90
2019-02-05T09:20:23.691Z,17.10
2019-02-05T09:22:51.137Z,18.17
2019-02-05T09:25:18.837Z,17.90
2019-02-05T09:27:46.627Z,18.33
2019-02-05T09:30:19.448Z,17.17
2019-02-05T09:32:47.545Z,17.50
2019-02-05T09:35:14.892Z,17.60
2019-02-05T09:37:42.316Z,17.57
2019-02-05T09:40:13.959Z,16.70
2019-02-05T09:42:41.311Z,16.00
2019-02-05T09:45:09.408Z,15.63
2019-02-05T09:47:36.875Z,16.13
2019-02-05T09:50:05.235Z,16.87
2019-02-05T09:52:33.151Z,16.03
2019-02-05T09:55:00.473Z,16.07
2019-02-05T09:57:27.815Z,16.13
2019-02-05T09:59:55.046Z,15.70
2019-02-05T10:02:22.392Z,17.07
2019-02-05T10:04:49.779Z,17.23
2019-02-05T10:07:17.132Z,15.80
2019-02-05T10:09:44.469Z,16.73
2019-02-05T10:12:12.035Z,16.90
2019-02-05T10:14:39.665Z,16.87
2019-02-05T10:17:07.029Z,17.13
2019-02-05T10:19:37.261Z,17.07
2019-02-05T10:22:04.991Z,15.83
2019-02-05T10:24:33.052Z,15.63
2019-02-05T10:27:00.748Z,16.47
2019-02-05T10:29:28.084Z,16.47
2019-02-05T10:31:55.935Z,16.27
2019-02-05T10:34:33.907Z,15.57
2019-02-05T10:36:53.208Z,15.30
2019-02-05T10:39:20.636Z,16.53
2019-02-05T10:41:48.339Z,15.30
2019-02-05T10:44:15.680Z,16.30
2019-02-05T10:46:43.031Z,15.63
2019-02-05T10:49:10.563Z,15.77
2019-02-05T10:51:37.822Z,16.03
2019-02-05T10:54:05.244Z,15.63
2019-02-05T10:56:33.399Z,15.47
2019-02-05T10:59:03.699Z,14.80
2019-02-05T11:01:31.034Z,15.53
2019-02-05T11:03:58.720Z,15.27
2019-02-05T11:06:29.027Z,15.33
2019-02-05T11:08:56.516Z,14.23
2019-02-05T11:11:23.858Z,12.90
2019-02-05T11:13:51.212Z,12.17
2019-02-05T11:16:18.555Z,12.37
2019-02-05T11:18:45.891Z,11.47
2019-02-05T11:21:13.225Z,11.60
2019-02-05T11:23:40.961Z,12.13
2019-02-05T11:26:08.289Z,11.30
2019-02-05T11:28:35.933Z,11.63
2019-02-05T11:31:03.656Z,11.47
2019-02-05T11:33:31.072Z,11.37
2019-02-05T11:35:58.405Z,10.63
2019-02-05T11:38:25.735Z,12.00
2019-02-05T11:40:53.289Z,8.30
2019-02-05T11:43:20.631Z,9.63
2019-02-05T11:45:47.875Z,9.10
2019-02-05T11:48:17.129Z,8.73
2019-02-05T11:50:44.471Z,8.93
2019-02-05T11:53:12.157Z,8.63
2019-02-05T11:55:39.898Z,9.77
2019-02-05T11:58:07.240Z,9.30
2019-02-05T12:00:54.298Z,8.80
2019-02-05T12:03:21.648Z,9.37
2019-02-05T12:05:48.983Z,8.57
2019-02-05T12:08:18.560Z,8.53
2019-02-05T12:10:45.564Z,8.87
2019-02-05T12:13:12.926Z,7.93
2019-02-05T12:15:40.285Z,7.43
2019-02-05T12:18:07.656Z,7.40
2019-02-05T12:20:34.985Z,7.30
2019-02-05T12:23:03.136Z,7.50
2019-02-05T12:25:30.464Z,7.43
2019-02-05T12:27:57.833Z,6.83
2019-02-05T12:30:27.505Z,7.30
2019-02-05T12:32:54.872Z,7.50
2019-02-05T12:35:22.307Z,7.00
2019-02-05T12:37:49.569Z,6.97
2019-02-05T12:40:17.239Z,7.43
2019-02-05T12:42:45.370Z,7.00
2019-02-05T12:45:15.405Z,6.73
2019-02-05T12:47:42.773Z,7.50
2019-02-05T12:50:16.273Z,7.20
2019-02-05T12:52:43.612Z,6.23
2019-02-05T12:55:14.532Z,7.17
2019-02-05T12:57:40.423Z,7.43
2019-02-05T13:00:17.972Z,6.80
2019-02-05T13:02:45.305Z,6.87
2019-02-05T13:05:13.101Z,6.83
2019-02-05T13:07:40.427Z,7.80
2019-02-05T13:10:09.939Z,7.63
2019-02-05T13:12:37.477Z,7.00
2019-02-05T13:15:06.701Z,7.97
2019-02-05T13:17:33.945Z,8.13
2019-02-05T13:20:01.183Z,7.73
2019-02-05T13:22:28.516Z,7.70
2019-02-05T13:24:55.765Z,7.63
2019-02-05T13:27:23.311Z,7.00
2019-02-05T13:29:51.079Z,7.40
2019-02-05T13:32:18.633Z,7.10
2019-02-05T13:34:45.953Z,7.67
2019-02-05T13:37:13.179Z,8.53
2019-02-05T13:39:40.801Z,8.30
2019-02-05T13:42:08.360Z,8.00
2019-02-05T13:44:35.635Z,7.50
2019-02-05T13:47:03.162Z,8.53
2019-02-05T13:49:30.431Z,8.70
2019-02-05T13:51:57.761Z,8.23
2019-02-05T13:54:25.135Z,8.80
2019-02-05T13:56:52.392Z,8.43
2019-02-05T13:59:19.668Z,8.33
2019-02-05T14:01:47.217Z,8.03
2019-02-05T14:04:14.891Z,7.87
2019-02-05T14:06:42.219Z,7.27
2019-02-05T14:09:12.104Z,8.27
2019-02-05T14:11:39.357Z,8.17
2019-02-05T14:14:06.932Z,8.00
2019-02-05T14:16:34.162Z,7.67
2019-02-05T14:19:01.809Z,8.63
2019-02-05T14:21:29.815Z,8.80
2019-02-05T14:23:57.195Z,8.57
2019-02-05T14:26:24.436Z,8.17
2019-02-05T14:28:51.884Z,9.30
2019-02-05T14:31:29.975Z,9.03
2019-02-05T14:33:48.976Z,9.37
2019-02-05T14:36:16.308Z,8.87
2019-02-05T14:38:43.576Z,8.37
2019-02-05T14:41:10.804Z,8.87
2019-02-05T14:43:38.387Z,8.13
2019-02-05T14:46:06.227Z,8.13
2019-02-05T14:48:33.476Z,8.00
2019-02-05T14:51:01.035Z,8.13
2019-02-05T14:53:28.268Z,8.30
2019-02-05T14:55:55.507Z,8.13
2019-02-05T14:58:22.833Z,7.60
2019-02-05T15:00:50.452Z,9.23
2019-02-05T15:03:17.675Z,7.60
2019-02-05T15:05:45.942Z,7.57
2019-02-05T15:08:14.634Z,7.83
2019-02-05T15:10:41.922Z,8.57
2019-02-05T15:13:09.338Z,8.33
2019-02-05T15:15:37.275Z,8.60
2019-02-05T15:18:06.443Z,8.63
2019-02-05T15:20:35.642Z,8.87
2019-02-05T15:23:04.493Z,8.40
2019-02-05T15:25:31.870Z,8.50
2019-02-05T15:27:59.400Z,7.77
2019-02-05T15:30:30.063Z,8.20
2019-02-05T15:33:23.127Z,9.17
2019-02-05T15:35:53.657Z,8.17
2019-02-05T15:38:20.930Z,7.73
2019-02-05T15:40:48.595Z,8.00
2019-02-05T15:43:16.261Z,8.17
2019-02-05T15:45:43.599Z,11.97
2019-02-05T15:48:10.837Z,10.37
2019-02-05T15:50:38.189Z,8.63
2019-02-05T15:53:05.404Z,8.33
2019-02-05T15:55:32.772Z,8.73
2019-02-05T15:58:00.456Z,8.03
2019-02-05T16:00:28.041Z,7.80
2019-02-05T16:02:55.582Z,7.83
2019-02-05T16:05:22.935Z,7.43
2019-02-05T16:07:50.156Z,7.63
2019-02-05T16:10:17.738Z,8.27
2019-02-05T16:12:45.399Z,8.07
2019-02-05T16:15:13.389Z,8.03
2019-02-05T16:17:40.717Z,7.73
2019-02-05T16:20:09.984Z,8.03
2019-02-05T16:22:37.208Z,7.47
2019-02-05T16:25:06.348Z,7.57
2019-02-05T16:27:33.569Z,8.17
2019-02-05T16:30:00.942Z,7.57
2019-02-05T16:32:28.658Z,7.03
2019-02-05T16:34:55.971Z,7.50
2019-02-05T16:37:23.289Z,7.97
2019-02-05T16:39:50.507Z,7.63
2019-02-05T16:42:17.735Z,7.90
2019-02-05T16:44:44.971Z,8.13
2019-02-05T16:47:12.203Z,8.50
2019-02-05T16:49:39.541Z,9.00
2019-02-05T16:52:06.971Z,8.70
2019-02-05T16:54:34.223Z,10.37
2019-02-05T16:57:01.558Z,12.23
2019-02-05T16:59:28.889Z,11.03
2019-02-05T17:01:57.262Z,11.40
2019-02-05T17:04:24.829Z,11.67
2019-02-05T17:06:52.251Z,11.77
2019-02-05T17:09:19.867Z,9.00
2019-02-05T17:11:47.100Z,9.80
2019-02-05T17:14:14.336Z,10.47
2019-02-05T17:16:41.672Z,9.73
2019-02-05T17:19:09.611Z,12.67
2019-02-05T17:21:37.171Z,12.10
2019-02-05T17:24:04.411Z,13.27
2019-02-05T17:26:33.603Z,11.80
2019-02-05T17:29:00.839Z,9.10
2019-02-05T17:31:28.127Z,8.67
2019-02-05T17:33:55.368Z,8.53
2019-02-05T17:36:22.651Z,9.00
2019-02-05T17:38:49.886Z,8.27
2019-02-05T17:41:17.701Z,9.10
2019-02-05T17:43:45.428Z,9.67
2019-02-05T17:46:13.051Z,10.63
2019-02-05T17:48:40.279Z,10.43
2019-02-05T17:51:07.557Z,12.37
2019-02-05T17:53:34.885Z,11.57
2019-02-05T17:56:02.174Z,12.00
2019-02-05T17:58:29.499Z,11.10
2019-02-05T18:01:08.027Z,11.17
2019-02-05T18:03:35.351Z,9.80
2019-02-05T18:06:03.096Z,10.33
2019-02-05T18:08:31.285Z,11.33
2019-02-05T18:10:58.775Z,12.03
2019-02-05T18:13:26.506Z,14.50
2019-02-05T18:15:53.843Z,13.30
2019-02-05T18:18:21.250Z,13.20
2019-02-05T18:20:48.934Z,11.23
2019-02-05T18:23:16.354Z,11.73
2019-02-05T18:25:43.683Z,11.50
2019-02-05T18:28:10.972Z,12.57
2019-02-05T18:30:38.439Z,11.03
2019-02-05T18:33:06.075Z,10.63
2019-02-05T18:35:33.458Z,11.13
2019-02-05T18:38:00.889Z,10.80
2019-02-05T18:40:28.216Z,10.90
2019-02-05T18:42:55.508Z,10.43
2019-02-05T18:45:22.745Z,9.57
2019-02-05T18:47:50.567Z,12.70
2019-02-05T18:50:23.060Z,10.83
2019-02-05T18:52:50.659Z,12.17
2019-02-05T18:55:18.175Z,12.53
2019-02-05T18:57:45.456Z,12.27
2019-02-05T19:00:33.282Z,12.00
2019-02-05T19:03:01.503Z,12.90
2019-02-05T19:05:28.944Z,12.43
2019-02-05T19:07:56.324Z,12.60
2019-02-05T19:10:25.352Z,12.33
2019-02-05T19:12:53.063Z,11.30
2019-02-05T19:15:25.377Z,10.83
2019-02-05T19:17:52.792Z,11.03
2019-02-05T19:20:22.032Z,10.27
2019-02-05T19:22:49.348Z,11.97
2019-02-05T19:25:32.508Z,11.80
2019-02-05T19:27:59.797Z,12.30
2019-02-05T19:30:28.373Z,11.77
2019-02-05T19:32:56.162Z,10.70
2019-02-05T19:35:26.491Z,10.23
2019-02-05T19:37:53.759Z,9.40
2019-02-05T19:40:20.884Z,10.07
2019-02-05T19:42:48.431Z,13.33
2019-02-05T19:45:28.306Z,15.50
2019-02-05T19:47:56.214Z,12.27
2019-02-05T19:50:23.583Z,11.97
2019-02-05T19:52:51.587Z,11.83
2019-02-05T19:55:18.812Z,11.63
2019-02-05T19:57:46.418Z,12.20
2019-02-05T20:00:13.861Z,11.80
2019-02-05T20:02:41.179Z,10.73
2019-02-05T20:05:08.944Z,12.23
2019-02-05T20:07:36.532Z,12.40
2019-02-05T20:10:05.331Z,12.07
2019-02-05T20:12:33.075Z,12.80
2019-02-05T20:15:00.760Z,12.30
2019-02-05T20:17:28.106Z,12.70
2019-02-05T20:19:55.345Z,12.17
2019-02-05T20:22:22.577Z,13.97
2019-02-05T20:24:49.822Z,14.50
2019-02-05T20:27:17.151Z,14.97
2019-02-05T20:29:44.812Z,15.40
2019-02-05T20:32:12.039Z,15.03
2019-02-05T20:34:39.269Z,13.93
2019-02-05T20:37:06.936Z,14.53
2019-02-05T20:39:34.504Z,14.73
2019-02-05T20:42:01.799Z,15.00
2019-02-05T20:44:29.119Z,16.33
2019-02-05T20:46:56.639Z,16.23
2019-02-05T20:49:24.315Z,16.00
2019-02-05T20:51:51.635Z,15.80
2019-02-05T20:54:19.002Z,16.00
2019-02-05T20:56:46.287Z,16.10
2019-02-05T20:59:13.604Z,16.53
2019-02-05T21:01:41.276Z,15.07
2019-02-05T21:04:08.663Z,14.33
2019-02-05T21:06:35.886Z,14.87
2019-02-05T21:09:13.298Z,14.30
2019-02-05T21:11:40.636Z,14.00
2019-02-05T21:14:07.928Z,14.97
2019-02-05T21:16:35.164Z,14.07
2019-02-05T21:19:02.356Z,13.57
2019-02-05T21:21:30.143Z,14.30
2019-02-05T21:23:57.451Z,14.23
2019-02-05T21:26:25.171Z,12.70
2019-02-05T21:28:52.817Z,13.50
2019-02-05T21:31:20.811Z,12.83
2019-02-05T21:33:48.914Z,14.77
2019-02-05T21:36:16.287Z,14.30
2019-02-05T21:38:45.383Z,14.83
2019-02-05T21:41:12.669Z,15.13
2019-02-05T21:43:39.896Z,19.57
2019-02-05T21:46:07.219Z,37.40
2019-02-05T21:48:34.486Z,30.37
2019-02-05T21:51:02.084Z,16.47
2019-02-05T21:53:29.766Z,17.40
2019-02-05T21:55:57.083Z,17.20
2019-02-05T21:58:24.389Z,24.60
2019-02-05T22:00:52.012Z,26.17
2019-02-05T22:03:19.566Z,26.43
2019-02-05T22:05:46.973Z,22.93
2019-02-05T22:08:14.319Z,21.30
2019-02-05T22:10:41.641Z,22.60
2019-02-05T22:13:09.580Z,17.13
2019-02-05T22:15:36.942Z,16.90
2019-02-05T22:18:04.409Z,14.77
2019-02-05T22:20:31.817Z,13.47
2019-02-05T22:22:59.144Z,13.73
2019-02-05T22:25:27.168Z,15.40
2019-02-05T22:27:54.528Z,13.93
2019-02-05T22:30:28.240Z,14.57
2019-02-05T22:32:56.108Z,13.23
2019-02-05T22:35:23.516Z,14.50
2019-02-05T22:37:51.147Z,14.33
2019-02-05T22:40:19.986Z,14.97
2019-02-05T22:42:47.685Z,15.47
2019-02-05T22:45:16.111Z,15.73
2019-02-05T22:47:43.738Z,14.83
2019-02-05T22:50:14.036Z,14.77
2019-02-05T22:52:41.377Z,13.63
2019-02-05T22:55:09.043Z,14.23
2019-02-05T22:57:36.281Z,14.00
2019-02-05T23:00:28.020Z,15.00
2019-02-05T23:02:56.939Z,17.77
2019-02-05T23:06:11.481Z,17.13
2019-02-05T23:08:38.908Z,18.90
2019-02-05T23:11:34.188Z,16.83
2019-02-05T23:14:01.507Z,16.90
2019-02-05T23:16:29.167Z,18.10
2019-02-05T23:18:56.834Z,17.13
2019-02-05T23:21:24.197Z,16.63
2019-02-05T23:23:51.716Z,17.20
2019-02-05T23:26:18.969Z,17.63
2019-02-05T23:28:46.291Z,16.70
2019-02-05T23:31:13.647Z,16.63
2019-02-05T23:33:40.875Z,17.33
2019-02-05T23:36:08.128Z,16.37
2019-02-05T23:38:35.680Z,17.40
2019-02-05T23:41:03.327Z,17.07
2019-02-05T23:43:30.951Z,17.13
2019-02-05T23:46:01.711Z,16.53
2019-02-05T23:48:27.349Z,16.40
2019-02-05T23:50:54.762Z,15.20
2019-02-05T23:53:22.007Z,15.93
2019-02-05T23:55:49.258Z,15.13
2019-02-05T23:58:16.572Z,14.33
